createdAt,value
2023-03-20T00:00:23.935Z,9.20
2023-03-20T00:01:23.877Z,9.21
2023-03-20T00:02:23.863Z,9.20
2023-03-20T00:03:23.898Z,9.20
2023-03-20T00:04:23.894Z,9.21
2023-03-20T00:05:23.845Z,9.24
2023-03-20T00:06:23.828Z,9.26
2023-03-20T00:07:23.815Z,9.28
2023-03-20T00:08:23.800Z,9.30
2023-03-20T00:09:23.807Z,9.32
2023-03-20T00:10:23.792Z,9.34
2023-03-20T00:11:23.783Z,9.34
2023-03-20T00:12:23.746Z,9.33
2023-03-20T00:13:23.769Z,9.31
2023-03-20T00:14:23.755Z,9.30
2023-03-20T00:15:23.714Z,9.28
2023-03-20T00:16:23.743Z,9.26
2023-03-20T00:17:23.692Z,9.23
2023-03-20T00:18:23.661Z,9.20
2023-03-20T00:19:23.655Z,9.17
2023-03-20T00:20:23.641Z,9.13
2023-03-20T00:21:23.648Z,9.07
2023-03-20T00:22:23.622Z,9.02
2023-03-20T00:23:23.615Z,8.97
2023-03-20T00:24:23.636Z,8.92
2023-03-20T00:25:23.589Z,8.88
2023-03-20T00:26:23.599Z,8.86
2023-03-20T00:27:23.549Z,8.84
2023-03-20T00:28:23.523Z,8.81
2023-03-20T00:29:23.534Z,8.77
2023-03-20T00:30:23.533Z,8.74
2023-03-20T00:31:23.629Z,8.71
2023-03-20T00:32:23.471Z,8.69
2023-03-20T00:33:23.489Z,8.66
2023-03-20T00:34:23.531Z,8.63
2023-03-20T00:35:23.438Z,8.59
2023-03-20T00:36:23.451Z,8.56
2023-03-20T00:37:23.427Z,8.52
2023-03-20T00:38:23.417Z,8.48
2023-03-20T00:39:23.387Z,8.44
2023-03-20T00:40:23.377Z,8.40
2023-03-20T00:41:23.363Z,8.37
2023-03-20T00:42:23.372Z,8.34
2023-03-20T00:43:23.344Z,8.30
2023-03-20T00:44:23.333Z,8.25
2023-03-20T00:45:23.304Z,8.21
2023-03-20T00:46:23.365Z,8.18
2023-03-20T00:47:23.347Z,8.16
2023-03-20T00:48:23.263Z,8.14
2023-03-20T00:49:23.277Z,8.12
2023-03-20T00:50:23.225Z,8.09
2023-03-20T00:51:23.229Z,8.04
2023-03-20T00:52:23.204Z,7.99
2023-03-20T00:53:23.228Z,7.95
2023-03-20T00:54:23.184Z,7.92
2023-03-20T00:55:23.209Z,7.90
2023-03-20T00:56:23.163Z,7.88
2023-03-20T00:57:23.199Z,7.85
2023-03-20T00:58:23.145Z,7.80
2023-03-20T00:59:23.144Z,7.73
2023-03-20T01:00:23.154Z,7.68
2023-03-20T01:01:23.118Z,7.63
2023-03-20T01:02:23.118Z,7.59
2023-03-20T01:03:23.130Z,7.53
2023-03-20T01:04:23.069Z,7.46
2023-03-20T01:05:23.052Z,7.38
2023-03-20T01:06:23.052Z,7.34
2023-03-20T01:07:23.041Z,7.32
2023-03-20T01:08:23.039Z,7.32
2023-03-20T01:09:22.985Z,7.32
2023-03-20T01:10:23.006Z,7.35
2023-03-20T01:11:22.963Z,7.37
2023-03-20T01:12:22.966Z,7.39
2023-03-20T01:13:22.989Z,7.38
2023-03-20T01:14:22.911Z,7.37
2023-03-20T01:15:22.944Z,7.37
2023-03-20T01:16:23.056Z,7.38
2023-03-20T01:17:22.888Z,7.39
2023-03-20T01:18:22.887Z,7.39
2023-03-20T01:19:22.862Z,7.39
2023-03-20T01:20:22.831Z,7.39
2023-03-20T01:21:22.840Z,7.40
2023-03-20T01:22:22.871Z,7.40
2023-03-20T01:23:22.844Z,7.41
2023-03-20T01:24:22.788Z,7.41
2023-03-20T01:25:22.790Z,7.38
2023-03-20T01:26:22.783Z,7.35
2023-03-20T01:27:22.767Z,7.31
2023-03-20T01:28:22.754Z,7.27
2023-03-20T01:29:22.768Z,7.24
2023-03-20T01:30:22.719Z,7.21
2023-03-20T01:31:22.803Z,7.20
2023-03-20T01:32:22.678Z,7.22
2023-03-20T01:33:22.671Z,7.25
2023-03-20T01:34:22.672Z,7.26
2023-03-20T01:35:22.651Z,7.27
2023-03-20T01:36:22.748Z,7.29
2023-03-20T01:37:22.666Z,7.32
2023-03-20T01:38:22.650Z,7.35
2023-03-20T01:39:22.656Z,7.39
2023-03-20T01:40:22.623Z,7.45
2023-03-20T01:41:22.619Z,7.51
2023-03-20T01:42:22.631Z,7.56
2023-03-20T01:43:22.599Z,7.60
2023-03-20T01:44:22.643Z,7.64
2023-03-20T01:45:22.546Z,7.67
2023-03-20T01:46:22.611Z,7.70
2023-03-20T01:47:22.509Z,7.69
2023-03-20T01:48:22.474Z,7.67
2023-03-20T01:49:22.478Z,7.65
2023-03-20T01:50:22.453Z,7.62
2023-03-20T01:51:22.431Z,7.60
2023-03-20T01:52:22.461Z,7.60
2023-03-20T01:53:22.430Z,7.62
2023-03-20T01:54:22.409Z,7.64
2023-03-20T01:55:22.400Z,7.66
2023-03-20T01:56:22.378Z,7.67
2023-03-20T01:57:22.369Z,7.66
2023-03-20T01:58:22.368Z,7.65
2023-03-20T01:59:22.349Z,7.64
2023-03-20T02:00:22.329Z,7.63
2023-03-20T02:01:22.323Z,7.61
2023-03-20T02:02:22.287Z,7.58
2023-03-20T02:03:22.310Z,7.58
2023-03-20T02:04:22.331Z,7.59
2023-03-20T02:05:22.300Z,7.61
2023-03-20T02:06:22.256Z,7.62
2023-03-20T02:07:22.229Z,7.61
2023-03-20T02:08:22.260Z,7.59
2023-03-20T02:09:22.219Z,7.57
2023-03-20T02:10:22.206Z,7.56
2023-03-20T02:11:22.199Z,7.57
2023-03-20T02:12:22.177Z,7.57
2023-03-20T02:13:22.229Z,7.55
2023-03-20T02:14:22.189Z,7.53
2023-03-20T02:15:22.154Z,7.51
2023-03-20T02:16:22.268Z,7.51
2023-03-20T02:17:22.110Z,7.51
2023-03-20T02:18:22.151Z,7.51
2023-03-20T02:19:22.105Z,7.50
2023-03-20T02:20:22.148Z,7.49
2023-03-20T02:21:22.130Z,7.46
2023-03-20T02:22:22.062Z,7.42
2023-03-20T02:23:22.039Z,7.38
2023-03-20T02:24:22.024Z,7.35
2023-03-20T02:25:22.018Z,7.32
2023-03-20T02:26:21.989Z,7.31
2023-03-20T02:27:21.978Z,7.29
2023-03-20T02:28:21.962Z,7.27
2023-03-20T02:29:21.982Z,7.26
2023-03-20T02:30:21.954Z,7.25
2023-03-20T02:31:22.026Z,7.25
2023-03-20T02:32:21.919Z,7.25
2023-03-20T02:33:21.900Z,7.25
2023-03-20T02:34:21.897Z,7.25
2023-03-20T02:35:21.886Z,7.27
2023-03-20T02:36:21.869Z,7.28
2023-03-20T02:37:21.857Z,7.32
2023-03-20T02:38:21.809Z,7.36
2023-03-20T02:39:21.843Z,7.40
2023-03-20T02:40:21.812Z,7.43
2023-03-20T02:41:21.782Z,7.45
2023-03-20T02:42:21.834Z,7.46
2023-03-20T02:43:21.761Z,7.46
2023-03-20T02:44:21.729Z,7.44
2023-03-20T02:45:21.743Z,7.44
2023-03-20T02:46:21.813Z,7.43
2023-03-20T02:47:21.756Z,7.43
2023-03-20T02:48:21.687Z,7.43
2023-03-20T02:49:21.681Z,7.43
2023-03-20T02:50:21.706Z,7.42
2023-03-20T02:51:21.661Z,7.41
2023-03-20T02:52:21.670Z,7.39
2023-03-20T02:53:21.618Z,7.39
2023-03-20T02:54:21.617Z,7.41
2023-03-20T02:55:21.612Z,7.44
2023-03-20T02:56:21.588Z,7.47
2023-03-20T02:57:21.566Z,7.49
2023-03-20T02:58:21.570Z,7.52
2023-03-20T02:59:21.557Z,7.53
2023-03-20T03:00:21.580Z,7.54
2023-03-20T03:01:21.527Z,7.56
2023-03-20T03:02:21.553Z,7.57
2023-03-20T03:03:21.562Z,7.57
2023-03-20T03:04:21.543Z,7.56
2023-03-20T03:05:21.544Z,7.56
2023-03-20T03:06:21.526Z,7.55
2023-03-20T03:07:21.490Z,7.55
2023-03-20T03:08:21.464Z,7.55
2023-03-20T03:09:21.492Z,7.55
2023-03-20T03:10:21.453Z,7.55
2023-03-20T03:11:21.437Z,7.56
2023-03-20T03:12:21.403Z,7.57
2023-03-20T03:13:21.364Z,7.57
2023-03-20T03:14:21.385Z,7.58
2023-03-20T03:15:21.390Z,7.58
2023-03-20T03:16:21.385Z,7.59
2023-03-20T03:17:21.353Z,7.59
2023-03-20T03:18:21.316Z,7.60
2023-03-20T03:19:21.358Z,7.61
2023-03-20T03:20:21.390Z,7.62
2023-03-20T03:21:21.289Z,7.63
2023-03-20T03:22:21.302Z,7.63
2023-03-20T03:23:21.243Z,7.64
2023-03-20T03:24:26.767Z,7.64
2023-03-20T03:25:21.216Z,7.65
2023-03-20T03:26:21.213Z,7.66
2023-03-20T03:27:21.164Z,7.67
2023-03-20T03:28:21.180Z,7.68
2023-03-20T03:29:21.157Z,7.69
2023-03-20T03:30:21.156Z,7.71
2023-03-20T03:31:21.157Z,7.72
2023-03-20T03:32:21.129Z,7.73
2023-03-20T03:33:21.132Z,7.75
2023-03-20T03:34:21.101Z,7.76
2023-03-20T03:35:21.076Z,7.77
2023-03-20T03:36:21.081Z,7.78
2023-03-20T03:37:21.066Z,7.78
2023-03-20T03:38:21.021Z,7.78
2023-03-20T03:39:21.007Z,7.79
2023-03-20T03:40:21.167Z,7.79
2023-03-20T03:41:21.041Z,7.79
2023-03-20T03:42:21.002Z,7.80
2023-03-20T03:43:20.981Z,7.80
2023-03-20T03:44:20.964Z,7.80
2023-03-20T03:45:20.943Z,7.80
2023-03-20T03:46:20.947Z,7.80
2023-03-20T03:47:20.898Z,7.80
2023-03-20T03:48:20.962Z,7.80
2023-03-20T03:49:20.930Z,7.80
2023-03-20T03:50:20.936Z,7.80
2023-03-20T03:51:20.919Z,7.80
2023-03-20T03:52:20.941Z,7.80
2023-03-20T03:53:20.876Z,7.80
2023-03-20T03:54:20.838Z,7.80
2023-03-20T03:55:20.868Z,7.80
2023-03-20T03:56:20.892Z,7.81
2023-03-20T03:57:20.837Z,7.80
2023-03-20T03:58:20.803Z,7.80
2023-03-20T03:59:20.757Z,7.80
2023-03-20T04:00:20.756Z,7.80
2023-03-20T04:01:20.714Z,7.79
2023-03-20T04:02:20.744Z,7.79
2023-03-20T04:03:20.708Z,7.79
2023-03-20T04:04:20.787Z,7.79
2023-03-20T04:05:20.699Z,7.80
2023-03-20T04:06:20.688Z,7.80
2023-03-20T04:07:20.638Z,7.80
2023-03-20T04:08:20.672Z,7.79
2023-03-20T04:09:20.643Z,7.79
2023-03-20T04:10:20.610Z,7.78
2023-03-20T04:11:20.608Z,7.78
2023-03-20T04:12:20.594Z,7.76
2023-03-20T04:13:20.602Z,7.74
2023-03-20T04:14:20.587Z,7.73
2023-03-20T04:15:20.544Z,7.71
2023-03-20T04:16:20.587Z,7.68
2023-03-20T04:17:20.526Z,7.65
2023-03-20T04:18:20.526Z,7.64
2023-03-20T04:19:20.489Z,7.62
2023-03-20T04:20:20.477Z,7.60
2023-03-20T04:21:20.507Z,7.59
2023-03-20T04:22:20.469Z,7.58
2023-03-20T04:23:20.464Z,7.56
2023-03-20T04:24:20.460Z,7.55
2023-03-20T04:25:20.433Z,7.53
2023-03-20T04:26:20.403Z,7.50
2023-03-20T04:27:20.374Z,7.47
2023-03-20T04:28:20.380Z,7.45
2023-03-20T04:29:20.362Z,7.43
2023-03-20T04:30:20.356Z,7.43
2023-03-20T04:31:20.404Z,7.43
2023-03-20T04:32:20.329Z,7.43
2023-03-20T04:33:20.325Z,7.43
2023-03-20T04:34:20.327Z,7.43
2023-03-20T04:35:20.392Z,7.43
2023-03-20T04:36:20.344Z,7.43
2023-03-20T04:37:20.292Z,7.42
2023-03-20T04:38:20.250Z,7.42
2023-03-20T04:39:20.242Z,7.41
2023-03-20T04:40:20.205Z,7.40
2023-03-20T04:41:20.224Z,7.40
2023-03-20T04:42:20.197Z,7.41
2023-03-20T04:43:20.176Z,7.42
2023-03-20T04:44:20.180Z,7.44
2023-03-20T04:45:20.150Z,7.44
2023-03-20T04:46:20.197Z,7.45
2023-03-20T04:47:20.170Z,7.45
2023-03-20T04:48:20.141Z,7.45
2023-03-20T04:49:20.098Z,7.45
2023-03-20T04:50:20.101Z,7.45
2023-03-20T04:51:20.092Z,7.46
2023-03-20T04:52:20.076Z,7.47
2023-03-20T04:53:20.067Z,7.47
2023-03-20T04:54:20.025Z,7.48
2023-03-20T04:55:20.035Z,7.49
2023-03-20T04:56:20.018Z,7.49
2023-03-20T04:57:20.087Z,7.48
2023-03-20T04:58:20.047Z,7.47
2023-03-20T04:59:20.050Z,7.46
2023-03-20T05:00:19.964Z,7.45
2023-03-20T05:01:20.026Z,7.43
2023-03-20T05:02:19.969Z,7.42
2023-03-20T05:03:22.492Z,7.41
2023-03-20T05:04:19.963Z,7.41
2023-03-20T05:05:19.928Z,7.42
2023-03-20T05:06:19.863Z,7.43
2023-03-20T05:07:19.910Z,7.43
2023-03-20T05:08:19.841Z,7.43
2023-03-20T05:09:19.817Z,7.42
2023-03-20T05:10:19.808Z,7.41
2023-03-20T05:11:19.801Z,7.40
2023-03-20T05:12:19.788Z,7.38
2023-03-20T05:13:19.806Z,7.37
2023-03-20T05:14:19.757Z,7.36
2023-03-20T05:15:19.751Z,7.36
2023-03-20T05:16:19.872Z,7.37
2023-03-20T05:17:19.743Z,7.38
2023-03-20T05:18:19.722Z,7.40
2023-03-20T05:19:19.737Z,7.42
2023-03-20T05:20:19.738Z,7.43
2023-03-20T05:21:19.686Z,7.45
2023-03-20T05:22:19.681Z,7.46
2023-03-20T05:23:19.678Z,7.46
2023-03-20T05:24:19.716Z,7.46
2023-03-20T05:25:19.652Z,7.44
2023-03-20T05:26:19.693Z,7.42
2023-03-20T05:27:19.622Z,7.40
2023-03-20T05:28:19.594Z,7.37
2023-03-20T05:29:19.678Z,7.36
2023-03-20T05:30:19.659Z,7.35
2023-03-20T05:31:19.634Z,7.36
2023-03-20T05:32:19.563Z,7.37
2023-03-20T05:33:19.563Z,7.38
2023-03-20T05:34:19.522Z,7.39
2023-03-20T05:35:19.472Z,7.39
2023-03-20T05:36:19.541Z,7.38
2023-03-20T05:37:19.460Z,7.37
2023-03-20T05:38:19.476Z,7.36
2023-03-20T05:39:19.414Z,7.36
2023-03-20T05:40:19.429Z,7.37
2023-03-20T05:41:19.414Z,7.39
2023-03-20T05:42:19.382Z,7.41
2023-03-20T05:43:19.383Z,7.44
2023-03-20T05:44:19.395Z,7.46
2023-03-20T05:45:19.363Z,7.47
2023-03-20T05:46:19.441Z,7.48
2023-03-20T05:47:19.309Z,7.49
2023-03-20T05:48:19.328Z,7.50
2023-03-20T05:49:19.297Z,7.50
2023-03-20T05:50:19.282Z,7.50
2023-03-20T05:51:19.312Z,7.51
2023-03-20T05:52:19.283Z,7.51
2023-03-20T05:53:19.304Z,7.52
2023-03-20T05:54:19.285Z,7.53
2023-03-20T05:55:19.255Z,7.54
2023-03-20T05:56:19.250Z,7.56
2023-03-20T05:57:19.194Z,7.58
2023-03-20T05:58:19.197Z,7.60
2023-03-20T05:59:19.208Z,7.61
2023-03-20T06:00:19.179Z,7.61
2023-03-20T06:01:19.160Z,7.62
2023-03-20T06:02:19.155Z,7.63
2023-03-20T06:03:19.147Z,7.63
2023-03-20T06:04:19.151Z,7.64
2023-03-20T06:05:19.080Z,7.64
2023-03-20T06:06:19.096Z,7.64
2023-03-20T06:07:19.094Z,7.64
2023-03-20T06:08:19.180Z,7.65
2023-03-20T06:09:19.201Z,7.66
2023-03-20T06:10:19.171Z,7.67
2023-03-20T06:11:19.076Z,7.68
2023-03-20T06:12:19.074Z,7.69
2023-03-20T06:13:19.109Z,7.70
2023-03-20T06:14:19.070Z,7.72
2023-03-20T06:15:19.099Z,7.73
2023-03-20T06:16:19.102Z,7.75
2023-03-20T06:17:18.965Z,7.77
2023-03-20T06:18:18.938Z,7.78
2023-03-20T06:19:19.041Z,7.80
2023-03-20T06:20:19.077Z,7.82
2023-03-20T06:21:19.051Z,7.85
2023-03-20T06:22:18.885Z,7.87
2023-03-20T06:23:18.868Z,7.90
2023-03-20T06:24:18.884Z,7.92
2023-03-20T06:25:18.844Z,7.95
2023-03-20T06:26:18.832Z,7.98
2023-03-20T06:27:18.929Z,8.01
2023-03-20T06:28:18.836Z,8.03
2023-03-20T06:29:19.025Z,8.07
2023-03-20T06:30:18.920Z,8.10
2023-03-20T06:31:18.771Z,8.14
2023-03-20T06:32:18.740Z,8.18
2023-03-20T06:33:18.792Z,8.22
2023-03-20T06:34:18.770Z,8.25
2023-03-20T06:35:18.795Z,8.28
2023-03-20T06:36:18.695Z,8.32
2023-03-20T06:37:18.762Z,8.35
2023-03-20T06:38:18.660Z,8.38
2023-03-20T06:39:18.687Z,8.41
2023-03-20T06:40:18.644Z,8.43
2023-03-20T06:41:31.905Z,8.45
2023-03-20T06:42:18.620Z,8.46
2023-03-20T06:43:18.765Z,8.48
2023-03-20T06:44:18.561Z,8.50
2023-03-20T06:45:18.591Z,8.52
2023-03-20T06:46:18.552Z,8.56
2023-03-20T06:47:18.553Z,8.59
2023-03-20T06:48:18.518Z,8.63
2023-03-20T06:49:18.502Z,8.66
2023-03-20T06:50:18.529Z,8.69
2023-03-20T06:51:18.465Z,8.71
2023-03-20T06:52:18.468Z,8.73
2023-03-20T06:53:18.456Z,8.75
2023-03-20T06:54:18.463Z,8.77
2023-03-20T06:55:18.400Z,8.78
2023-03-20T06:56:18.410Z,8.79
2023-03-20T06:57:18.425Z,8.79
2023-03-20T06:58:18.367Z,8.79
2023-03-20T06:59:18.384Z,8.80
2023-03-20T07:00:18.350Z,8.80
2023-03-20T07:01:18.351Z,8.80
2023-03-20T07:02:18.348Z,8.78
2023-03-20T07:03:18.360Z,8.77
2023-03-20T07:04:18.308Z,8.76
2023-03-20T07:05:18.347Z,8.74
2023-03-20T07:06:18.351Z,8.72
2023-03-20T07:07:18.284Z,8.69
2023-03-20T07:08:18.256Z,8.65
2023-03-20T07:09:18.251Z,8.62
2023-03-20T07:10:18.219Z,8.58
2023-03-20T07:11:18.236Z,8.55
2023-03-20T07:12:18.224Z,8.52
2023-03-20T07:13:18.227Z,8.49
2023-03-20T07:14:18.181Z,8.47
2023-03-20T07:15:18.175Z,8.45
2023-03-20T07:16:18.220Z,8.44
2023-03-20T07:17:18.173Z,8.42
2023-03-20T07:18:18.139Z,8.40
2023-03-20T07:19:18.120Z,8.39
2023-03-20T07:20:18.126Z,8.40
2023-03-20T07:21:18.074Z,8.41
2023-03-20T07:22:18.074Z,8.42
2023-03-20T07:23:18.065Z,8.43
2023-03-20T07:24:18.076Z,8.44
2023-03-20T07:25:20.559Z,8.44
2023-03-20T07:26:18.044Z,8.44
2023-03-20T07:27:18.041Z,8.45
2023-03-20T07:28:18.009Z,8.46
2023-03-20T07:29:18.016Z,8.48
2023-03-20T07:30:17.953Z,8.49
2023-03-20T07:31:17.975Z,8.50
2023-03-20T07:32:17.934Z,8.50
2023-03-20T07:33:17.962Z,8.51
2023-03-20T07:34:17.929Z,8.52
2023-03-20T07:35:17.900Z,8.51
2023-03-20T07:36:17.892Z,8.49
2023-03-20T07:37:17.877Z,8.49
2023-03-20T07:38:17.852Z,8.49
2023-03-20T07:39:17.860Z,8.49
2023-03-20T07:40:17.841Z,8.48
2023-03-20T07:41:17.833Z,8.47
2023-03-20T07:42:17.813Z,8.47
2023-03-20T07:43:17.818Z,8.47
2023-03-20T07:44:17.775Z,8.48
2023-03-20T07:45:17.783Z,8.47
2023-03-20T07:46:17.774Z,8.45
2023-03-20T07:47:17.726Z,8.42
2023-03-20T07:48:17.722Z,8.38
2023-03-20T07:49:17.694Z,8.35
2023-03-20T07:50:17.681Z,8.32
2023-03-20T07:51:17.678Z,8.29
2023-03-20T07:52:17.665Z,8.26
2023-03-20T07:53:17.657Z,8.22
2023-03-20T07:54:17.624Z,8.18
2023-03-20T07:55:18.646Z,8.15
2023-03-20T07:56:17.616Z,8.13
2023-03-20T07:57:17.610Z,8.11
2023-03-20T07:58:17.575Z,8.10
2023-03-20T07:59:17.559Z,8.09
2023-03-20T08:00:17.558Z,8.06
2023-03-20T08:01:17.565Z,8.04
2023-03-20T08:02:17.532Z,8.02
2023-03-20T08:03:17.649Z,8.00
2023-03-20T08:04:17.527Z,7.99
2023-03-20T08:05:17.962Z,7.98
2023-03-20T08:06:17.469Z,7.97
2023-03-20T08:07:17.493Z,7.96
2023-03-20T08:08:20.714Z,7.96
2023-03-20T08:09:17.446Z,7.96
2023-03-20T08:10:17.477Z,7.97
2023-03-20T08:11:17.418Z,7.98
2023-03-20T08:12:17.385Z,7.98
2023-03-20T08:13:17.382Z,7.99
2023-03-20T08:14:17.423Z,8.01
2023-03-20T08:15:17.383Z,8.06
2023-03-20T08:16:17.519Z,8.13
2023-03-20T08:17:20.718Z,8.18
2023-03-20T08:18:17.310Z,8.24
2023-03-20T08:19:17.320Z,8.31
2023-03-20T08:20:17.292Z,8.38
2023-03-20T08:21:17.356Z,8.46
2023-03-20T08:22:17.297Z,8.55
2023-03-20T08:23:20.073Z,8.62
2023-03-20T08:24:17.314Z,8.69
2023-03-20T08:25:17.239Z,8.75
2023-03-20T08:26:17.232Z,8.79
2023-03-20T08:27:17.196Z,8.81
2023-03-20T08:28:17.244Z,8.81
2023-03-20T08:29:17.218Z,8.83
2023-03-20T08:30:17.187Z,8.87
2023-03-20T08:31:17.219Z,8.91
2023-03-20T08:32:17.130Z,8.95
2023-03-20T08:33:17.236Z,8.98
2023-03-20T08:34:17.102Z,8.98
2023-03-20T08:35:32.202Z,8.93
2023-03-20T08:36:17.174Z,8.88
2023-03-20T08:37:17.097Z,8.84
2023-03-20T08:38:17.072Z,8.81
2023-03-20T08:39:17.070Z,8.80
2023-03-20T08:40:17.049Z,8.78
2023-03-20T08:41:17.036Z,8.76
2023-03-20T08:42:17.029Z,8.75
2023-03-20T08:43:16.987Z,8.75
2023-03-20T08:44:16.984Z,8.75
2023-03-20T08:45:16.963Z,8.73
2023-03-20T08:46:17.033Z,8.72
2023-03-20T08:47:16.951Z,8.70
2023-03-20T08:48:16.939Z,8.68
2023-03-20T08:49:16.899Z,8.66
2023-03-20T08:50:16.909Z,8.64
2023-03-20T08:51:17.009Z,8.62
2023-03-20T08:52:16.896Z,8.62
2023-03-20T08:53:16.870Z,8.63
2023-03-20T08:54:16.833Z,8.66
2023-03-20T08:55:16.867Z,8.70
2023-03-20T08:56:16.836Z,8.78
2023-03-20T08:57:16.835Z,8.90
2023-03-20T08:58:16.822Z,9.05
2023-03-20T08:59:16.788Z,9.23
2023-03-20T09:00:16.778Z,9.44
2023-03-20T09:01:16.781Z,9.73
2023-03-20T09:02:16.904Z,10.05
2023-03-20T09:03:17.218Z,10.23
2023-03-20T09:04:16.728Z,10.29
2023-03-20T09:05:16.738Z,10.32
2023-03-20T09:06:16.714Z,10.33
2023-03-20T09:07:16.773Z,10.32
2023-03-20T09:08:16.672Z,10.33
2023-03-20T09:09:16.664Z,10.38
2023-03-20T09:10:16.658Z,10.47
2023-03-20T09:11:16.638Z,10.61
2023-03-20T09:12:16.609Z,10.71
2023-03-20T09:13:26.645Z,10.78
2023-03-20T09:14:16.575Z,10.87
2023-03-20T09:15:16.600Z,10.95
2023-03-20T09:16:16.583Z,10.95
2023-03-20T09:17:16.642Z,10.92
2023-03-20T09:18:16.526Z,10.85
2023-03-20T09:19:16.550Z,10.72
2023-03-20T09:20:16.542Z,10.62
2023-03-20T09:21:16.564Z,10.55
2023-03-20T09:22:16.479Z,10.53
2023-03-20T09:23:16.509Z,10.55
2023-03-20T09:24:16.511Z,10.57
2023-03-20T09:25:16.464Z,10.63
2023-03-20T09:26:16.437Z,10.74
2023-03-20T09:27:16.454Z,10.86
2023-03-20T09:28:16.402Z,10.96
2023-03-20T09:29:16.413Z,11.01
2023-03-20T09:30:16.478Z,11.01
2023-03-20T09:31:16.365Z,10.93
2023-03-20T09:32:16.377Z,10.81
2023-03-20T09:33:16.424Z,10.70
2023-03-20T09:34:16.311Z,10.59
2023-03-20T09:35:16.303Z,10.48
2023-03-20T09:36:16.375Z,10.40
2023-03-20T09:37:16.299Z,10.35
2023-03-20T09:38:16.296Z,10.36
2023-03-20T09:39:16.268Z,10.43
2023-03-20T09:40:16.254Z,10.52
2023-03-20T09:41:16.253Z,10.61
2023-03-20T09:42:16.252Z,10.65
2023-03-20T09:43:16.206Z,10.68
2023-03-20T09:44:16.189Z,10.69
2023-03-20T09:45:16.267Z,10.66
2023-03-20T09:46:16.206Z,10.64
2023-03-20T09:47:20.798Z,10.65
2023-03-20T09:48:16.147Z,10.68
2023-03-20T09:49:16.125Z,10.71
2023-03-20T09:50:16.164Z,10.74
2023-03-20T09:51:16.152Z,10.75
2023-03-20T09:52:16.080Z,10.74
2023-03-20T09:53:16.142Z,10.74
2023-03-20T09:54:16.067Z,10.77
2023-03-20T09:55:16.128Z,10.88
2023-03-20T09:56:16.044Z,11.02
2023-03-20T09:57:16.055Z,11.18
2023-03-20T09:58:16.218Z,11.31
2023-03-20T09:59:16.018Z,11.41
2023-03-20T10:00:16.041Z,11.45
2023-03-20T10:01:16.045Z,11.45
2023-03-20T10:02:16.059Z,11.43
2023-03-20T10:03:16.075Z,11.35
2023-03-20T10:04:16.267Z,11.28
2023-03-20T10:05:15.932Z,11.30
2023-03-20T10:06:15.914Z,11.37
2023-03-20T10:07:15.921Z,11.49
2023-03-20T10:08:16.351Z,11.66
2023-03-20T10:09:15.904Z,11.81
2023-03-20T10:10:15.864Z,11.94
2023-03-20T10:11:15.868Z,12.10
2023-03-20T10:12:15.808Z,12.21
2023-03-20T10:13:15.824Z,12.23
2023-03-20T10:14:16.869Z,12.18
2023-03-20T10:15:15.794Z,12.11
2023-03-20T10:16:15.787Z,12.04
2023-03-20T10:17:15.787Z,12.00
2023-03-20T10:18:15.747Z,11.96
2023-03-20T10:19:15.718Z,11.91
2023-03-20T10:20:15.731Z,11.86
2023-03-20T10:21:15.760Z,11.78
2023-03-20T10:22:15.689Z,11.66
2023-03-20T10:23:15.687Z,11.51
2023-03-20T10:24:15.705Z,11.41
2023-03-20T10:25:15.683Z,11.35
2023-03-20T10:26:15.657Z,11.32
2023-03-20T10:27:15.632Z,11.29
2023-03-20T10:28:15.608Z,11.28
2023-03-20T10:29:15.604Z,11.25
2023-03-20T10:30:15.603Z,11.19
2023-03-20T10:31:15.649Z,11.14
2023-03-20T10:32:15.604Z,11.12
2023-03-20T10:33:15.668Z,11.14
2023-03-20T10:34:15.559Z,11.18
2023-03-20T10:35:15.536Z,11.22
2023-03-20T10:36:15.543Z,11.29
2023-03-20T10:37:16.895Z,11.33
2023-03-20T10:38:15.500Z,11.36
2023-03-20T10:39:15.472Z,11.37
2023-03-20T10:40:15.480Z,11.38
2023-03-20T10:41:15.519Z,11.40
2023-03-20T10:42:15.458Z,11.45
2023-03-20T10:43:15.430Z,11.58
2023-03-20T10:44:15.412Z,11.80
2023-03-20T10:45:15.416Z,12.04
2023-03-20T10:46:15.361Z,12.23
2023-03-20T10:47:15.532Z,12.39
2023-03-20T10:48:15.345Z,12.52
2023-03-20T10:49:15.333Z,12.60
2023-03-20T10:50:15.352Z,12.61
2023-03-20T10:51:15.366Z,12.55
2023-03-20T10:52:15.388Z,12.46
2023-03-20T10:53:15.302Z,12.39
2023-03-20T10:54:15.258Z,12.30
2023-03-20T10:55:15.284Z,12.18
2023-03-20T10:56:17.078Z,12.09
2023-03-20T10:57:15.261Z,12.01
2023-03-20T10:58:15.224Z,11.86
2023-03-20T10:59:15.227Z,11.74
2023-03-20T11:00:15.222Z,11.71
2023-03-20T11:01:15.261Z,11.74
2023-03-20T11:02:15.198Z,11.79
2023-03-20T11:03:15.172Z,11.83
2023-03-20T11:04:15.177Z,11.88
2023-03-20T11:05:15.120Z,11.92
2023-03-20T11:06:15.104Z,11.93
2023-03-20T11:07:15.135Z,11.94
2023-03-20T11:08:15.109Z,11.99
2023-03-20T11:09:15.063Z,12.02
2023-03-20T11:10:15.062Z,12.04
2023-03-20T11:11:15.082Z,12.03
2023-03-20T11:12:15.038Z,12.01
2023-03-20T11:13:15.025Z,12.02
2023-03-20T11:14:15.013Z,12.07
2023-03-20T11:15:15.001Z,12.11
2023-03-20T11:16:15.051Z,12.13
2023-03-20T11:17:14.974Z,12.13
2023-03-20T11:18:14.977Z,12.09
2023-03-20T11:19:14.990Z,12.05
2023-03-20T11:20:15.013Z,12.06
2023-03-20T11:21:14.899Z,12.12
2023-03-20T11:22:14.914Z,12.08
2023-03-20T11:23:14.928Z,11.98
2023-03-20T11:24:14.862Z,11.88
2023-03-20T11:25:14.939Z,11.78
2023-03-20T11:26:14.860Z,11.74
2023-03-20T11:27:14.864Z,11.72
2023-03-20T11:28:14.798Z,11.75
2023-03-20T11:29:14.842Z,11.86
2023-03-20T11:30:14.843Z,11.97
2023-03-20T11:31:14.767Z,12.05
2023-03-20T11:32:14.847Z,12.08
2023-03-20T11:33:14.874Z,12.10
2023-03-20T11:34:14.775Z,12.13
2023-03-20T11:35:14.769Z,12.19
2023-03-20T11:36:14.744Z,12.24
2023-03-20T11:37:14.699Z,12.27
2023-03-20T11:38:14.659Z,12.27
2023-03-20T11:39:14.686Z,12.25
2023-03-20T11:40:14.670Z,12.19
2023-03-20T11:41:14.647Z,12.06
2023-03-20T11:42:14.631Z,11.93
2023-03-20T11:43:14.605Z,11.81
2023-03-20T11:44:14.618Z,11.69
2023-03-20T11:45:14.583Z,11.61
2023-03-20T11:46:14.645Z,11.57
2023-03-20T11:47:14.576Z,11.55
2023-03-20T11:48:14.553Z,11.55
2023-03-20T11:49:14.528Z,11.56
2023-03-20T11:50:14.517Z,11.53
2023-03-20T11:51:14.492Z,11.46
2023-03-20T11:52:14.519Z,11.41
2023-03-20T11:53:14.477Z,11.38
2023-03-20T11:54:14.450Z,11.38
2023-03-20T11:55:14.433Z,11.40
2023-03-20T11:56:14.448Z,11.42
2023-03-20T11:57:14.446Z,11.42
2023-03-20T11:58:14.427Z,11.41
2023-03-20T11:59:14.408Z,11.41
2023-03-20T12:00:14.445Z,11.41
2023-03-20T12:01:14.397Z,11.40
2023-03-20T12:02:14.402Z,11.41
2023-03-20T12:03:14.342Z,11.42
2023-03-20T12:04:14.331Z,11.44
2023-03-20T12:05:16.747Z,11.49
2023-03-20T12:06:14.320Z,11.61
2023-03-20T12:07:14.298Z,11.74
2023-03-20T12:08:14.289Z,11.79
2023-03-20T12:09:14.338Z,11.78
2023-03-20T12:10:14.297Z,11.78
2023-03-20T12:11:14.227Z,11.79
2023-03-20T12:12:14.243Z,11.83
2023-03-20T12:13:14.214Z,11.90
2023-03-20T12:14:14.208Z,12.01
2023-03-20T12:15:14.183Z,12.11
2023-03-20T12:16:14.203Z,12.18
2023-03-20T12:17:14.142Z,12.20
2023-03-20T12:18:14.164Z,12.21
2023-03-20T12:19:14.144Z,12.24
2023-03-20T12:20:14.203Z,12.29
2023-03-20T12:21:14.102Z,12.24
2023-03-20T12:22:14.086Z,12.12
2023-03-20T12:23:14.150Z,12.01
2023-03-20T12:24:14.090Z,11.93
2023-03-20T12:25:14.065Z,11.88
2023-03-20T12:26:14.047Z,11.81
2023-03-20T12:27:14.723Z,11.72
2023-03-20T12:28:14.029Z,11.63
2023-03-20T12:29:14.013Z,11.56
2023-03-20T12:30:14.178Z,11.50
2023-03-20T12:31:14.070Z,11.47
2023-03-20T12:32:13.955Z,11.48
2023-03-20T12:33:14.060Z,11.50
2023-03-20T12:34:13.931Z,11.55
2023-03-20T12:35:16.583Z,11.59
2023-03-20T12:36:13.963Z,11.67
2023-03-20T12:37:13.903Z,11.84
2023-03-20T12:38:13.922Z,12.07
2023-03-20T12:39:13.897Z,12.27
2023-03-20T12:40:13.882Z,12.40
2023-03-20T12:41:13.849Z,12.51
2023-03-20T12:42:13.873Z,12.64
2023-03-20T12:43:13.804Z,12.73
2023-03-20T12:44:13.829Z,12.76
2023-03-20T12:45:13.806Z,12.71
2023-03-20T12:46:13.792Z,12.62
2023-03-20T12:47:13.783Z,12.56
2023-03-20T12:48:13.749Z,12.53
2023-03-20T12:49:13.766Z,12.54
2023-03-20T12:50:13.730Z,12.52
2023-03-20T12:51:13.923Z,12.44
2023-03-20T12:52:13.767Z,12.35
2023-03-20T12:53:13.693Z,12.29
2023-03-20T12:54:13.698Z,12.24
2023-03-20T12:55:13.644Z,12.23
2023-03-20T12:56:13.647Z,12.25
2023-03-20T12:57:13.681Z,12.27
2023-03-20T12:58:13.624Z,12.30
2023-03-20T12:59:13.609Z,12.35
2023-03-20T13:00:13.613Z,12.39
2023-03-20T13:01:13.572Z,12.39
2023-03-20T13:02:13.559Z,12.33
2023-03-20T13:03:13.615Z,12.25
2023-03-20T13:04:13.565Z,12.17
2023-03-20T13:05:13.527Z,12.08
2023-03-20T13:06:13.529Z,11.97
2023-03-20T13:07:13.528Z,11.91
2023-03-20T13:08:13.488Z,11.89
2023-03-20T13:09:13.478Z,11.90
2023-03-20T13:10:13.479Z,11.89